createdAt,value
2022-12-08T00:00:12.567Z,1.80
2022-12-08T00:01:12.576Z,1.70
2022-12-08T00:02:12.761Z,1.60
2022-12-08T00:03:12.761Z,1.70
2022-12-08T00:04:12.634Z,1.90
2022-12-08T00:05:12.649Z,1.80
2022-12-08T00:06:12.659Z,1.80
2022-12-08T00:07:12.685Z,1.70
2022-12-08T00:08:12.736Z,1.80
2022-12-08T00:09:12.717Z,1.90
2022-12-08T00:10:46.584Z,1.70
2022-12-08T00:11:12.749Z,1.70
2022-12-08T00:12:12.765Z,1.90
2022-12-08T00:13:12.777Z,1.70
2022-12-08T00:14:12.796Z,1.70
2022-12-08T00:15:12.817Z,1.70
2022-12-08T00:16:12.917Z,1.80
2022-12-08T00:17:12.846Z,1.70
2022-12-08T00:18:12.868Z,1.70
2022-12-08T00:19:12.906Z,1.90
2022-12-08T00:20:12.899Z,1.80
2022-12-08T00:21:12.917Z,1.70
2022-12-08T00:22:12.935Z,1.50
2022-12-08T00:23:12.944Z,1.90
2022-12-08T00:24:12.959Z,1.80
2022-12-08T00:25:12.977Z,2.00
2022-12-08T00:26:13.000Z,1.80
2022-12-08T00:27:13.016Z,1.90
2022-12-08T00:28:13.026Z,1.90
2022-12-08T00:29:17.133Z,1.80
2022-12-08T00:30:13.059Z,1.80
2022-12-08T00:31:13.082Z,1.80
2022-12-08T00:32:13.207Z,1.90
2022-12-08T00:33:13.110Z,2.00
2022-12-08T00:34:13.133Z,1.90
2022-12-08T00:35:13.167Z,1.70
2022-12-08T00:36:13.158Z,1.80
2022-12-08T00:37:13.176Z,1.90
2022-12-08T00:38:13.192Z,1.90
2022-12-08T00:39:13.208Z,1.80
2022-12-08T00:40:13.232Z,1.90
2022-12-08T00:41:13.248Z,1.80
2022-12-08T00:42:13.329Z,1.90
2022-12-08T00:43:13.282Z,1.70
2022-12-08T00:44:13.291Z,1.90
2022-12-08T00:45:13.317Z,1.60
2022-12-08T00:46:13.368Z,1.70
2022-12-08T00:47:13.349Z,1.90
2022-12-08T00:48:13.357Z,1.90
2022-12-08T00:49:13.375Z,1.60
2022-12-08T00:50:13.390Z,1.80
2022-12-08T00:51:13.433Z,1.90
2022-12-08T00:52:13.431Z,2.00
2022-12-08T00:53:13.448Z,1.70
2022-12-08T00:54:13.456Z,1.90
2022-12-08T00:55:13.482Z,1.90
2022-12-08T00:56:13.490Z,1.80
2022-12-08T00:57:13.512Z,1.70
2022-12-08T00:58:13.523Z,1.50
2022-12-08T00:59:13.539Z,1.80
2022-12-08T01:00:13.557Z,1.80
2022-12-08T01:01:13.651Z,1.80
2022-12-08T01:02:13.593Z,1.80
2022-12-08T01:03:13.654Z,1.50
2022-12-08T01:04:13.630Z,1.70
2022-12-08T01:05:13.640Z,1.90
2022-12-08T01:06:13.660Z,1.60
2022-12-08T01:07:13.701Z,1.70
2022-12-08T01:08:13.772Z,1.70
2022-12-08T01:09:13.704Z,1.60
2022-12-08T01:10:13.722Z,1.80
2022-12-08T01:11:13.748Z,1.60
2022-12-08T01:12:13.762Z,1.70
2022-12-08T01:13:13.772Z,1.60
2022-12-08T01:14:13.795Z,1.70
2022-12-08T01:15:13.805Z,1.60
2022-12-08T01:16:13.864Z,1.50
2022-12-08T01:17:13.889Z,1.70
2022-12-08T01:18:13.862Z,1.80
2022-12-08T01:19:13.879Z,1.70
2022-12-08T01:20:13.888Z,1.70
2022-12-08T01:21:13.904Z,1.70
2022-12-08T01:22:13.924Z,1.60
2022-12-08T01:23:13.955Z,1.70
2022-12-08T01:24:13.961Z,1.80
2022-12-08T01:25:13.977Z,1.90
2022-12-08T01:26:13.995Z,1.70
2022-12-08T01:27:14.011Z,1.90
2022-12-08T01:28:14.028Z,1.90
2022-12-08T01:29:14.044Z,1.80
2022-12-08T01:30:14.053Z,1.70
2022-12-08T01:31:14.196Z,1.90
2022-12-08T01:32:14.092Z,1.70
2022-12-08T01:33:14.105Z,1.70
2022-12-08T01:34:14.123Z,1.70
2022-12-08T01:35:14.740Z,1.90
2022-12-08T01:36:14.153Z,1.70
2022-12-08T01:37:14.168Z,1.80
2022-12-08T01:38:14.184Z,1.80
2022-12-08T01:39:14.224Z,1.80
2022-12-08T01:40:14.228Z,1.60
2022-12-08T01:41:14.242Z,1.60
2022-12-08T01:42:14.260Z,1.80
2022-12-08T01:43:14.275Z,1.80
2022-12-08T01:44:14.282Z,1.80
2022-12-08T01:45:14.306Z,1.70
2022-12-08T01:46:14.454Z,1.90
2022-12-08T01:47:14.339Z,1.80
2022-12-08T01:48:14.432Z,1.80
2022-12-08T01:49:14.366Z,1.70
2022-12-08T01:50:14.388Z,1.80
2022-12-08T01:51:14.398Z,2.00
2022-12-08T01:52:14.415Z,1.80
2022-12-08T01:53:14.441Z,2.00
2022-12-08T01:54:14.453Z,1.80
2022-12-08T01:55:14.489Z,1.70
2022-12-08T01:56:14.492Z,1.80
2022-12-08T01:57:14.496Z,1.70
2022-12-08T01:58:14.513Z,1.70
2022-12-08T01:59:14.529Z,1.70
2022-12-08T02:00:14.555Z,1.70
2022-12-08T02:01:14.615Z,1.70
2022-12-08T02:02:14.655Z,1.90
2022-12-08T02:03:14.595Z,1.80
2022-12-08T02:04:14.610Z,1.60
2022-12-08T02:05:14.628Z,1.60
2022-12-08T02:06:14.645Z,1.80
2022-12-08T02:07:14.668Z,1.80
2022-12-08T02:08:14.788Z,1.90
2022-12-08T02:09:14.697Z,1.90
2022-12-08T02:10:14.723Z,1.90
2022-12-08T02:11:14.745Z,1.70
2022-12-08T02:12:14.749Z,1.90
2022-12-08T02:13:14.764Z,1.90
2022-12-08T02:14:14.777Z,1.80
2022-12-08T02:15:14.802Z,1.60
2022-12-08T02:16:14.849Z,1.80
2022-12-08T02:17:14.831Z,1.60
2022-12-08T02:18:14.847Z,1.80
2022-12-08T02:19:31.597Z,2.00
2022-12-08T02:20:14.881Z,1.90
2022-12-08T02:21:14.889Z,1.80
2022-12-08T02:22:14.905Z,1.80
2022-12-08T02:23:14.929Z,1.80
2022-12-08T02:24:14.948Z,1.70
2022-12-08T02:25:14.965Z,1.70
2022-12-08T02:26:14.980Z,1.70
2022-12-08T02:27:15.011Z,1.80
2022-12-08T02:28:15.013Z,1.70
2022-12-08T02:29:15.022Z,1.70
2022-12-08T02:30:15.043Z,1.80
2022-12-08T02:31:15.138Z,1.90
2022-12-08T02:32:15.086Z,1.80
2022-12-08T02:33:15.096Z,1.70
2022-12-08T02:34:15.109Z,1.70
2022-12-08T02:35:15.125Z,1.80
2022-12-08T02:36:15.153Z,1.70
2022-12-08T02:37:15.159Z,1.60
2022-12-08T02:38:15.175Z,1.90
2022-12-08T02:39:15.190Z,1.60
2022-12-08T02:40:15.208Z,1.70
2022-12-08T02:41:15.228Z,1.70
2022-12-08T02:42:15.239Z,1.70
2022-12-08T02:43:15.272Z,1.70
2022-12-08T02:44:15.266Z,1.50
2022-12-08T02:45:15.290Z,1.70
2022-12-08T02:46:15.389Z,1.60
2022-12-08T02:47:15.314Z,1.80
2022-12-08T02:48:15.332Z,1.80
2022-12-08T02:49:15.355Z,1.60
2022-12-08T02:50:15.363Z,1.80
2022-12-08T02:51:15.380Z,1.70
2022-12-08T02:52:15.401Z,1.60
2022-12-08T02:53:16.670Z,1.80
2022-12-08T02:54:15.640Z,1.70
2022-12-08T02:55:15.446Z,1.50
2022-12-08T02:56:15.470Z,1.60
2022-12-08T02:57:15.480Z,1.80
2022-12-08T02:58:15.500Z,1.60
2022-12-08T02:59:15.528Z,1.80
2022-12-08T03:00:15.527Z,1.90
2022-12-08T03:01:15.580Z,1.70
2022-12-08T03:02:15.619Z,1.60
2022-12-08T03:03:15.576Z,1.60
2022-12-08T03:04:15.600Z,1.80
2022-12-08T03:05:15.616Z,1.70
2022-12-08T03:06:15.632Z,1.70
2022-12-08T03:07:15.647Z,1.70
2022-12-08T03:08:15.796Z,1.60
2022-12-08T03:09:15.682Z,1.70
2022-12-08T03:10:15.689Z,1.70
2022-12-08T03:11:15.713Z,1.80
2022-12-08T03:12:15.731Z,1.90
2022-12-08T03:13:15.750Z,1.80
2022-12-08T03:14:15.755Z,1.60
2022-12-08T03:15:15.797Z,1.60
2022-12-08T03:16:15.889Z,1.60
2022-12-08T03:17:15.811Z,1.70
2022-12-08T03:18:15.821Z,1.50
2022-12-08T03:19:15.838Z,1.70
2022-12-08T03:20:15.851Z,1.60
2022-12-08T03:21:15.869Z,1.70
2022-12-08T03:22:15.890Z,1.80
2022-12-08T03:23:15.907Z,1.70
2022-12-08T03:24:15.916Z,1.60
2022-12-08T03:25:15.940Z,1.60
2022-12-08T03:26:15.948Z,1.80
2022-12-08T03:27:15.967Z,1.70
2022-12-08T03:28:15.980Z,1.70
2022-12-08T03:29:15.997Z,1.60
2022-12-08T03:30:16.020Z,1.70
2022-12-08T03:31:16.149Z,1.50
2022-12-08T03:32:16.047Z,1.70
2022-12-08T03:33:16.063Z,1.70
2022-12-08T03:34:16.085Z,1.60
2022-12-08T03:35:16.095Z,1.70
2022-12-08T03:36:16.112Z,1.60
2022-12-08T03:37:16.126Z,1.70
2022-12-08T03:38:16.149Z,1.60
2022-12-08T03:39:16.159Z,1.50
2022-12-08T03:40:16.176Z,1.70
2022-12-08T03:41:16.192Z,1.80
2022-12-08T03:42:16.206Z,1.70
2022-12-08T03:43:16.231Z,1.70
2022-12-08T03:44:16.242Z,1.60
2022-12-08T03:45:16.258Z,1.80
2022-12-08T03:46:16.341Z,1.80
2022-12-08T03:47:16.306Z,1.80
2022-12-08T03:48:16.306Z,1.80
2022-12-08T03:49:16.321Z,1.80
2022-12-08T03:50:16.337Z,1.50
2022-12-08T03:51:16.360Z,1.60
2022-12-08T03:52:16.376Z,1.60
2022-12-08T03:53:16.392Z,1.60
2022-12-08T03:54:16.401Z,1.70
2022-12-08T03:55:16.417Z,1.60
2022-12-08T03:56:16.435Z,1.80
2022-12-08T03:57:16.451Z,1.60
2022-12-08T03:58:16.472Z,1.70
2022-12-08T03:59:16.488Z,1.90
2022-12-08T04:00:16.502Z,1.80
2022-12-08T04:01:16.514Z,1.80
2022-12-08T04:02:16.572Z,1.90
2022-12-08T04:03:16.712Z,1.80
2022-12-08T04:04:16.561Z,1.70
2022-12-08T04:05:16.587Z,1.80
2022-12-08T04:06:16.601Z,2.00
2022-12-08T04:07:16.612Z,1.90
2022-12-08T04:08:16.707Z,1.80
2022-12-08T04:09:16.653Z,1.80
2022-12-08T04:10:16.665Z,2.00
2022-12-08T04:11:16.676Z,1.80
2022-12-08T04:12:16.691Z,2.10
2022-12-08T04:13:16.708Z,2.00
2022-12-08T04:14:16.733Z,2.00
2022-12-08T04:15:16.741Z,1.70
2022-12-08T04:16:16.825Z,2.20
2022-12-08T04:17:16.779Z,1.90
2022-12-08T04:18:16.793Z,2.00
2022-12-08T04:19:16.831Z,2.20
2022-12-08T04:20:16.836Z,2.30
2022-12-08T04:21:16.843Z,2.10
2022-12-08T04:22:16.861Z,1.90
2022-12-08T04:23:16.878Z,1.90
2022-12-08T04:24:16.885Z,2.00
2022-12-08T04:25:16.907Z,2.10
2022-12-08T04:26:16.923Z,1.90
2022-12-08T04:27:16.939Z,2.00
2022-12-08T04:28:16.957Z,2.00
2022-12-08T04:29:16.976Z,2.20
2022-12-08T04:30:16.990Z,2.20
2022-12-08T04:31:17.068Z,2.10
2022-12-08T04:32:17.018Z,2.20
2022-12-08T04:33:17.028Z,2.10
2022-12-08T04:34:17.044Z,2.10
2022-12-08T04:35:17.080Z,2.10
2022-12-08T04:36:17.082Z,2.20
2022-12-08T04:37:17.092Z,2.10
2022-12-08T04:38:17.109Z,2.40
2022-12-08T04:39:17.126Z,2.20
2022-12-08T04:40:17.148Z,2.00
2022-12-08T04:41:17.156Z,2.30
2022-12-08T04:42:17.179Z,2.40
2022-12-08T04:43:17.196Z,2.20
2022-12-08T04:44:17.213Z,2.20
2022-12-08T04:45:17.229Z,2.20
2022-12-08T04:46:17.299Z,2.00
2022-12-08T04:47:17.355Z,2.10
2022-12-08T04:48:17.277Z,2.10
2022-12-08T04:49:17.286Z,2.20
2022-12-08T04:50:17.307Z,2.30
2022-12-08T04:51:17.342Z,2.10
2022-12-08T04:52:17.335Z,2.20
2022-12-08T04:53:17.350Z,2.30
2022-12-08T04:54:17.372Z,2.30
2022-12-08T04:55:17.390Z,2.20
2022-12-08T04:56:17.402Z,2.30
2022-12-08T04:57:17.412Z,2.40
2022-12-08T04:58:17.431Z,2.10
2022-12-08T04:59:17.451Z,2.20
2022-12-08T05:00:17.476Z,2.20
2022-12-08T05:01:17.552Z,1.90
2022-12-08T05:02:17.648Z,2.40
2022-12-08T05:03:17.515Z,2.30
2022-12-08T05:04:17.526Z,2.40
2022-12-08T05:05:17.549Z,2.20
2022-12-08T05:06:17.562Z,2.30
2022-12-08T05:07:17.597Z,2.20
2022-12-08T05:08:17.647Z,2.30
2022-12-08T05:09:17.612Z,2.20
2022-12-08T05:10:17.620Z,2.20
2022-12-08T05:11:17.644Z,2.30
2022-12-08T05:12:17.659Z,2.10
2022-12-08T05:13:17.677Z,2.30
2022-12-08T05:14:17.685Z,2.30
2022-12-08T05:15:17.707Z,2.50
2022-12-08T05:16:17.823Z,2.50
2022-12-08T05:17:17.732Z,2.60
2022-12-08T05:18:17.748Z,2.20
2022-12-08T05:19:17.774Z,2.50
2022-12-08T05:20:17.788Z,2.10
2022-12-08T05:21:17.796Z,2.40
2022-12-08T05:22:17.818Z,2.20
2022-12-08T05:23:17.847Z,2.30
2022-12-08T05:24:17.850Z,2.30
2022-12-08T05:25:17.858Z,2.40
2022-12-08T05:26:17.875Z,2.30
2022-12-08T05:27:17.899Z,2.50
2022-12-08T05:28:40.650Z,2.20
2022-12-08T05:29:17.924Z,2.30
2022-12-08T05:30:17.944Z,2.40
2022-12-08T05:31:17.972Z,2.40
2022-12-08T05:32:17.978Z,2.30
2022-12-08T05:33:17.994Z,2.40
2022-12-08T05:34:18.003Z,2.30
2022-12-08T05:35:18.030Z,2.10
2022-12-08T05:36:18.035Z,2.40
2022-12-08T05:37:18.056Z,2.40
2022-12-08T05:38:18.065Z,2.20
2022-12-08T05:39:18.107Z,2.50
2022-12-08T05:40:18.097Z,2.60
2022-12-08T05:41:18.114Z,2.50
2022-12-08T05:42:23.130Z,2.40
2022-12-08T05:43:18.163Z,2.30
2022-12-08T05:44:18.161Z,2.50
2022-12-08T05:45:18.184Z,2.50
2022-12-08T05:46:18.340Z,2.40
2022-12-08T05:47:18.208Z,2.50
2022-12-08T05:48:18.224Z,2.60
2022-12-08T05:49:18.249Z,2.20
2022-12-08T05:50:18.263Z,2.20
2022-12-08T05:51:18.271Z,2.30
2022-12-08T05:52:18.290Z,2.40
2022-12-08T05:53:18.305Z,2.40
2022-12-08T05:54:18.319Z,2.40
2022-12-08T05:55:18.367Z,2.40
2022-12-08T05:56:18.359Z,2.40
2022-12-08T05:57:18.367Z,2.60
2022-12-08T05:58:18.382Z,2.40
2022-12-08T05:59:18.400Z,2.40
2022-12-08T06:00:18.421Z,2.40
2022-12-08T06:01:18.431Z,2.40
2022-12-08T06:02:18.677Z,2.50
2022-12-08T06:03:18.557Z,2.30
2022-12-08T06:04:18.478Z,2.40
2022-12-08T06:05:18.494Z,2.30
2022-12-08T06:06:18.517Z,2.40
2022-12-08T06:07:18.526Z,2.30
2022-12-08T06:08:18.650Z,2.50
2022-12-08T06:09:18.566Z,2.40
2022-12-08T06:10:18.573Z,2.40
2022-12-08T06:11:18.613Z,2.30
2022-12-08T06:12:18.613Z,2.40
2022-12-08T06:13:18.628Z,2.20
2022-12-08T06:14:18.635Z,2.40
2022-12-08T06:15:18.652Z,2.10
2022-12-08T06:16:18.791Z,2.40
2022-12-08T06:17:18.696Z,2.30
2022-12-08T06:18:18.699Z,2.20
2022-12-08T06:19:18.714Z,2.50
2022-12-08T06:20:18.737Z,2.40
2022-12-08T06:21:18.747Z,2.40
2022-12-08T06:22:18.761Z,2.30
2022-12-08T06:23:18.781Z,2.50
2022-12-08T06:24:18.803Z,2.20
2022-12-08T06:25:18.816Z,2.40
2022-12-08T06:26:18.832Z,2.30
2022-12-08T06:27:18.863Z,2.40
2022-12-08T06:28:18.856Z,2.40
2022-12-08T06:29:18.884Z,2.30
2022-12-08T06:30:18.889Z,2.30
2022-12-08T06:31:19.024Z,2.40
2022-12-08T06:32:20.772Z,2.30
2022-12-08T06:33:18.937Z,2.40
2022-12-08T06:34:18.966Z,2.30
2022-12-08T06:35:18.974Z,2.30
2022-12-08T06:36:18.983Z,2.20
2022-12-08T06:37:18.998Z,2.40
2022-12-08T06:38:19.013Z,2.30
2022-12-08T06:39:19.030Z,2.40
2022-12-08T06:40:19.046Z,2.30
2022-12-08T06:41:19.071Z,2.40
2022-12-08T06:42:19.086Z,2.20
2022-12-08T06:43:19.123Z,2.40
2022-12-08T06:44:19.110Z,2.30
2022-12-08T06:45:19.143Z,2.10
2022-12-08T06:46:19.278Z,2.30
2022-12-08T06:47:22.127Z,2.20
2022-12-08T06:48:19.178Z,2.30
2022-12-08T06:49:19.197Z,2.30
2022-12-08T06:50:19.205Z,2.30
2022-12-08T06:51:19.226Z,2.50
2022-12-08T06:52:19.236Z,2.30
2022-12-08T06:53:19.258Z,2.30
2022-12-08T06:54:19.276Z,2.30
2022-12-08T06:55:50.581Z,2.20
2022-12-08T06:56:19.298Z,2.30
2022-12-08T06:57:19.323Z,2.40
2022-12-08T06:58:19.335Z,2.20
2022-12-08T06:59:19.376Z,2.40
2022-12-08T07:00:19.371Z,2.30
2022-12-08T07:01:19.467Z,2.40
2022-12-08T07:02:19.475Z,2.40
2022-12-08T07:03:19.414Z,2.30
2022-12-08T07:04:19.432Z,2.20
2022-12-08T07:05:19.447Z,2.30
2022-12-08T07:06:19.456Z,2.40
2022-12-08T07:07:19.479Z,2.30
2022-12-08T07:08:19.563Z,2.20
2022-12-08T07:09:19.509Z,2.20
2022-12-08T07:10:19.517Z,2.40
2022-12-08T07:11:21.828Z,2.20
2022-12-08T07:12:19.558Z,2.20
2022-12-08T07:13:19.573Z,2.00
2022-12-08T07:14:19.587Z,2.20
2022-12-08T07:15:19.621Z,2.30
2022-12-08T07:16:19.716Z,2.20
2022-12-08T07:17:19.627Z,2.20
2022-12-08T07:18:19.644Z,2.10
2022-12-08T07:19:19.665Z,2.20
2022-12-08T07:20:19.675Z,2.40
2022-12-08T07:21:19.704Z,2.20
2022-12-08T07:22:19.704Z,2.20
2022-12-08T07:23:19.733Z,2.30
2022-12-08T07:24:19.738Z,2.10
2022-12-08T07:25:19.760Z,2.30
2022-12-08T07:26:19.769Z,2.20
2022-12-08T07:27:19.784Z,2.10
2022-12-08T07:28:19.800Z,2.30
2022-12-08T07:29:25.964Z,2.20
2022-12-08T07:30:19.838Z,2.30
2022-12-08T07:31:20.008Z,2.10
2022-12-08T07:32:19.871Z,2.30
2022-12-08T07:33:19.878Z,2.20
2022-12-08T07:34:19.901Z,2.10
2022-12-08T07:35:19.919Z,2.20
2022-12-08T07:36:19.925Z,2.30
2022-12-08T07:37:19.940Z,2.30
2022-12-08T07:38:20.016Z,2.30
2022-12-08T07:39:19.977Z,2.30
2022-12-08T07:40:19.991Z,2.10
2022-12-08T07:41:20.011Z,2.20
2022-12-08T07:42:20.029Z,2.10
2022-12-08T07:43:20.042Z,2.30
2022-12-08T07:44:20.058Z,2.30
2022-12-08T07:45:20.074Z,2.30
2022-12-08T07:46:20.268Z,2.50
2022-12-08T07:47:20.119Z,2.20
2022-12-08T07:48:20.122Z,2.40
2022-12-08T07:49:20.145Z,2.40
2022-12-08T07:50:20.142Z,2.40
2022-12-08T07:51:20.166Z,2.40
2022-12-08T07:52:20.183Z,2.20
2022-12-08T07:53:20.197Z,2.10
2022-12-08T07:54:20.212Z,2.30
2022-12-08T07:55:20.219Z,2.20
2022-12-08T07:56:20.243Z,2.10
2022-12-08T07:57:20.255Z,2.50
2022-12-08T07:58:20.274Z,2.40
2022-12-08T07:59:20.290Z,2.50
2022-12-08T08:00:20.305Z,2.40
2022-12-08T08:01:20.544Z,2.30
2022-12-08T08:02:24.772Z,2.30
2022-12-08T08:03:20.379Z,2.40
2022-12-08T08:04:20.425Z,2.50
2022-12-08T08:05:20.383Z,2.40
2022-12-08T08:06:20.397Z,2.50
2022-12-08T08:07:20.417Z,2.50
2022-12-08T08:08:20.521Z,2.30
2022-12-08T08:09:20.440Z,2.40
2022-12-08T08:10:20.461Z,2.30
2022-12-08T08:11:21.671Z,2.20
2022-12-08T08:12:31.324Z,2.30
2022-12-08T08:13:20.500Z,2.30
2022-12-08T08:14:20.517Z,2.30
2022-12-08T08:15:20.538Z,2.40
2022-12-08T08:16:20.652Z,2.40
2022-12-08T08:17:20.754Z,2.10
2022-12-08T08:18:20.587Z,2.40
2022-12-08T08:19:20.615Z,2.40
2022-12-08T08:20:20.617Z,2.30
2022-12-08T08:21:46.850Z,2.30
2022-12-08T08:22:20.641Z,2.40
2022-12-08T08:23:20.655Z,2.40
2022-12-08T08:24:20.671Z,2.50
2022-12-08T08:25:20.694Z,2.10
2022-12-08T08:26:20.700Z,2.30
2022-12-08T08:27:20.729Z,2.40
2022-12-08T08:28:20.732Z,2.50
2022-12-08T08:29:20.756Z,2.30
2022-12-08T08:30:21.322Z,2.30
2022-12-08T08:31:20.817Z,2.10
2022-12-08T08:32:20.794Z,2.10
2022-12-08T08:33:20.822Z,2.40
2022-12-08T08:34:20.833Z,2.30
2022-12-08T08:35:20.860Z,2.50
2022-12-08T08:36:20.865Z,2.20
2022-12-08T08:37:20.947Z,2.30
2022-12-08T08:38:20.893Z,2.30
2022-12-08T08:39:20.911Z,2.30
2022-12-08T08:40:20.925Z,2.30
2022-12-08T08:41:20.942Z,2.30
2022-12-08T08:42:20.949Z,2.40
2022-12-08T08:43:20.971Z,2.20
2022-12-08T08:44:20.988Z,2.40
2022-12-08T08:45:21.002Z,2.50
2022-12-08T08:46:21.052Z,2.60
2022-12-08T08:47:21.033Z,2.30
2022-12-08T08:48:21.049Z,2.30
2022-12-08T08:49:21.063Z,2.50
2022-12-08T08:50:21.078Z,2.50
2022-12-08T08:51:21.110Z,2.40
2022-12-08T08:52:21.104Z,2.40
2022-12-08T08:53:21.126Z,2.50
2022-12-08T08:54:21.134Z,2.50
2022-12-08T08:55:21.161Z,2.60
2022-12-08T08:56:21.165Z,2.40
2022-12-08T08:57:25.493Z,2.70
2022-12-08T08:58:21.202Z,2.40
2022-12-08T08:59:21.217Z,2.50
2022-12-08T09:00:21.226Z,2.30
2022-12-08T09:01:21.366Z,2.40
2022-12-08T09:02:21.386Z,2.40
2022-12-08T09:03:21.279Z,2.30
2022-12-08T09:04:21.386Z,2.50
2022-12-08T09:05:21.311Z,2.50
2022-12-08T09:06:21.366Z,2.40
2022-12-08T09:07:21.359Z,2.30
2022-12-08T09:08:21.428Z,2.30
2022-12-08T09:09:21.367Z,2.40
2022-12-08T09:10:21.378Z,2.60
2022-12-08T09:11:21.402Z,2.40
2022-12-08T09:12:21.417Z,2.40
2022-12-08T09:13:21.433Z,2.50
2022-12-08T09:14:21.451Z,2.60
2022-12-08T09:15:21.460Z,2.40
2022-12-08T09:16:21.562Z,2.40
2022-12-08T09:17:21.542Z,2.70
2022-12-08T09:18:21.503Z,2.70
2022-12-08T09:19:21.518Z,2.70
2022-12-08T09:20:21.542Z,2.80
2022-12-08T09:21:21.550Z,2.80
2022-12-08T09:22:21.572Z,2.80
2022-12-08T09:23:21.618Z,2.80
2022-12-08T09:24:21.596Z,2.60
2022-12-08T09:25:21.620Z,2.80
2022-12-08T09:26:21.627Z,2.70
2022-12-08T09:27:21.757Z,2.60
2022-12-08T09:28:21.657Z,2.60
2022-12-08T09:29:21.679Z,2.50
2022-12-08T09:30:21.888Z,2.60
2022-12-08T09:31:21.833Z,2.50
2022-12-08T09:32:21.719Z,2.70
2022-12-08T09:33:21.735Z,2.60
2022-12-08T09:34:21.754Z,2.70
2022-12-08T09:35:21.809Z,2.50
2022-12-08T09:36:21.780Z,2.60
2022-12-08T09:37:21.862Z,2.70
2022-12-08T09:38:21.821Z,2.90
2022-12-08T09:39:21.965Z,2.80
2022-12-08T09:40:21.848Z,2.80
2022-12-08T09:41:21.866Z,2.70
2022-12-08T09:42:21.873Z,2.80
2022-12-08T09:43:21.887Z,2.60
2022-12-08T09:44:21.910Z,2.60
2022-12-08T09:45:21.916Z,2.50
2022-12-08T09:46:22.012Z,2.80
2022-12-08T09:47:21.957Z,2.60
2022-12-08T09:48:21.971Z,2.50
2022-12-08T09:49:21.978Z,2.30
2022-12-08T09:50:22.069Z,2.70
2022-12-08T09:51:22.020Z,2.60
2022-12-08T09:52:22.023Z,2.70
2022-12-08T09:53:22.050Z,2.70
2022-12-08T09:54:22.055Z,2.70
2022-12-08T09:55:22.101Z,2.70
2022-12-08T09:56:22.095Z,2.70
2022-12-08T09:57:22.105Z,2.60
2022-12-08T09:58:22.123Z,2.40
2022-12-08T09:59:22.136Z,2.50
2022-12-08T10:00:22.149Z,2.70
2022-12-08T10:01:22.231Z,2.40
2022-12-08T10:02:22.305Z,2.40
2022-12-08T10:03:22.198Z,2.40
2022-12-08T10:04:22.223Z,2.50
2022-12-08T10:05:22.290Z,2.60
2022-12-08T10:06:22.244Z,2.70
2022-12-08T10:07:22.254Z,2.70
2022-12-08T10:08:22.351Z,2.70
2022-12-08T10:09:22.929Z,2.50
2022-12-08T10:10:22.308Z,2.40
2022-12-08T10:11:22.346Z,2.80
2022-12-08T10:12:22.331Z,2.90
2022-12-08T10:13:22.352Z,2.60
2022-12-08T10:14:22.359Z,2.70
2022-12-08T10:15:22.384Z,2.50
2022-12-08T10:16:29.320Z,2.70
2022-12-08T10:17:22.417Z,2.80
2022-12-08T10:18:22.429Z,2.60
2022-12-08T10:19:22.445Z,2.60
2022-12-08T10:20:22.461Z,2.70
2022-12-08T10:21:22.476Z,2.50
2022-12-08T10:22:22.482Z,2.40
2022-12-08T10:23:22.499Z,2.40
2022-12-08T10:24:22.514Z,2.20
2022-12-08T10:25:22.536Z,2.40
2022-12-08T10:26:22.544Z,2.60
2022-12-08T10:27:22.585Z,2.50
2022-12-08T10:28:22.577Z,2.40
2022-12-08T10:29:22.595Z,2.40
2022-12-08T10:30:22.612Z,2.30
2022-12-08T10:31:22.725Z,2.40
2022-12-08T10:32:22.644Z,2.40
2022-12-08T10:33:22.659Z,2.50
2022-12-08T10:34:22.667Z,2.60
2022-12-08T10:35:22.689Z,2.50
2022-12-08T10:36:22.698Z,2.40
2022-12-08T10:37:22.713Z,2.50
2022-12-08T10:38:22.728Z,2.50
2022-12-08T10:39:22.749Z,2.50
2022-12-08T10:40:22.767Z,2.50
2022-12-08T10:41:22.775Z,2.50
2022-12-08T10:42:22.791Z,2.60
2022-12-08T10:43:22.831Z,2.30
2022-12-08T10:44:22.819Z,2.20
2022-12-08T10:45:22.843Z,2.40
2022-12-08T10:46:22.946Z,2.60
2022-12-08T10:47:22.874Z,2.30
2022-12-08T10:48:22.882Z,2.50
2022-12-08T10:49:22.896Z,2.50
2022-12-08T10:50:22.918Z,2.40
2022-12-08T10:51:22.926Z,2.50
2022-12-08T10:52:22.957Z,2.60
2022-12-08T10:53:22.966Z,2.50
2022-12-08T10:54:22.970Z,2.40
2022-12-08T10:55:22.993Z,2.50
2022-12-08T10:56:23.009Z,2.30
2022-12-08T10:57:23.026Z,2.40
2022-12-08T10:58:23.031Z,2.60
2022-12-08T10:59:23.078Z,2.50
2022-12-08T11:00:23.065Z,2.40
2022-12-08T11:01:23.157Z,2.40
2022-12-08T11:02:23.294Z,2.30
2022-12-08T11:03:23.117Z,2.50
2022-12-08T11:04:23.133Z,2.20
2022-12-08T11:05:23.141Z,2.60
2022-12-08T11:06:23.156Z,2.40
2022-12-08T11:07:23.179Z,2.50
2022-12-08T11:08:23.264Z,2.40
2022-12-08T11:09:23.202Z,2.60
2022-12-08T11:10:23.224Z,2.60
2022-12-08T11:11:29.192Z,2.40
2022-12-08T11:12:23.247Z,2.40
2022-12-08T11:13:23.270Z,2.40
2022-12-08T11:14:23.283Z,2.40
2022-12-08T11:15:23.318Z,2.40
2022-12-08T11:16:23.361Z,2.20
2022-12-08T11:17:23.331Z,2.40
2022-12-08T11:18:23.340Z,2.70
2022-12-08T11:19:23.354Z,2.20
2022-12-08T11:20:23.377Z,2.30
2022-12-08T11:21:23.383Z,2.40
2022-12-08T11:22:23.602Z,2.50
2022-12-08T11:23:23.414Z,2.50
2022-12-08T11:24:23.439Z,2.50
2022-12-08T11:25:23.444Z,2.30
2022-12-08T11:26:23.468Z,2.30
2022-12-08T11:27:23.483Z,2.30
2022-12-08T11:28:23.498Z,2.50
2022-12-08T11:29:23.515Z,2.50
2022-12-08T11:30:23.527Z,2.50
2022-12-08T11:31:24.024Z,2.40
2022-12-08T11:32:23.562Z,2.50
2022-12-08T11:33:23.569Z,2.40
2022-12-08T11:34:23.591Z,2.50
2022-12-08T11:35:23.597Z,2.60
2022-12-08T11:36:23.612Z,2.30
2022-12-08T11:37:23.631Z,2.40
2022-12-08T11:38:23.697Z,2.50
2022-12-08T11:39:23.676Z,2.40
2022-12-08T11:40:23.681Z,2.40
2022-12-08T11:41:23.692Z,2.20
2022-12-08T11:42:23.713Z,2.30
2022-12-08T11:43:23.728Z,2.50
2022-12-08T11:44:23.746Z,2.30
2022-12-08T11:45:23.760Z,2.60
2022-12-08T11:46:23.785Z,2.60
2022-12-08T11:47:23.810Z,2.40
2022-12-08T11:48:23.811Z,2.20
2022-12-08T11:49:23.814Z,2.60
2022-12-08T11:50:23.839Z,2.30
2022-12-08T11:51:23.845Z,2.50
2022-12-08T11:52:23.859Z,2.20
2022-12-08T11:53:23.883Z,2.50
2022-12-08T11:54:23.894Z,2.10
2022-12-08T11:55:23.912Z,2.40
2022-12-08T11:56:23.927Z,2.40
2022-12-08T11:57:23.943Z,2.50
2022-12-08T11:58:24.038Z,2.50
2022-12-08T11:59:23.967Z,2.40
2022-12-08T12:00:23.990Z,2.30
2022-12-08T12:01:24.026Z,2.70
2022-12-08T12:02:24.093Z,2.50
2022-12-08T12:03:24.145Z,2.20
2022-12-08T12:04:24.045Z,2.20
2022-12-08T12:05:39.808Z,2.30
2022-12-08T12:06:46.379Z,2.40
2022-12-08T12:07:26.394Z,2.30
2022-12-08T12:08:24.166Z,2.50
2022-12-08T12:09:24.128Z,2.40
2022-12-08T12:10:24.136Z,2.40
2022-12-08T12:11:24.158Z,2.20
2022-12-08T12:12:24.174Z,2.30
2022-12-08T12:13:24.184Z,2.30
2022-12-08T12:14:24.197Z,2.30
2022-12-08T12:15:24.219Z,2.10
2022-12-08T12:16:24.300Z,2.50
2022-12-08T12:17:24.247Z,2.80
2022-12-08T12:18:24.266Z,2.40
2022-12-08T12:19:24.298Z,2.40
2022-12-08T12:20:24.298Z,2.10
2022-12-08T12:21:24.321Z,2.30
2022-12-08T12:22:24.321Z,2.60
2022-12-08T12:23:24.343Z,2.60
2022-12-08T12:24:27.574Z,2.80
2022-12-08T12:25:24.374Z,2.90
2022-12-08T12:26:24.388Z,2.60
2022-12-08T12:27:24.399Z,2.40
2022-12-08T12:28:24.422Z,2.40
2022-12-08T12:29:24.430Z,2.20
2022-12-08T12:30:24.496Z,2.20
2022-12-08T12:31:24.460Z,2.30
2022-12-08T12:32:24.485Z,2.20
2022-12-08T12:33:24.498Z,2.50
2022-12-08T12:34:24.513Z,2.50
2022-12-08T12:35:27.333Z,2.50
2022-12-08T12:36:24.546Z,2.30
2022-12-08T12:37:24.562Z,2.50
2022-12-08T12:38:24.575Z,2.40
2022-12-08T12:39:24.584Z,2.20
2022-12-08T12:40:24.599Z,2.40
2022-12-08T12:41:25.710Z,2.40
2022-12-08T12:42:24.640Z,2.40
2022-12-08T12:43:24.665Z,2.50
2022-12-08T12:44:24.664Z,2.40
2022-12-08T12:45:24.686Z,2.40
2022-12-08T12:46:24.747Z,2.60
2022-12-08T12:47:24.716Z,3.00
2022-12-08T12:48:24.722Z,2.90
2022-12-08T12:49:24.740Z,2.90
2022-12-08T12:50:24.754Z,2.80
2022-12-08T12:51:24.791Z,3.10
2022-12-08T12:52:24.798Z,2.90
2022-12-08T12:53:24.808Z,2.90
2022-12-08T12:54:25.425Z,2.70
2022-12-08T12:55:24.838Z,3.10
2022-12-08T12:56:24.866Z,3.10
2022-12-08T12:57:24.865Z,3.20
2022-12-08T12:58:24.887Z,2.80
2022-12-08T12:59:25.064Z,2.70
2022-12-08T13:00:24.917Z,2.90
2022-12-08T13:01:24.961Z,2.90
2022-12-08T13:02:25.016Z,2.60
2022-12-08T13:03:24.968Z,2.60
2022-12-08T13:04:24.972Z,2.60
2022-12-08T13:05:24.996Z,2.70
2022-12-08T13:06:25.003Z,2.70
2022-12-08T13:07:25.052Z,3.10
2022-12-08T13:08:25.096Z,3.20
2022-12-08T13:09:25.061Z,3.30
2022-12-08T13:10:25.065Z,3.10
2022-12-08T13:11:25.087Z,2.90
2022-12-08T13:12:25.100Z,2.70
2022-12-08T13:13:25.129Z,2.40
2022-12-08T13:14:25.136Z,2.60
2022-12-08T13:15:25.151Z,2.60
2022-12-08T13:16:25.263Z,2.60
2022-12-08T13:17:25.183Z,2.70
2022-12-08T13:18:25.200Z,2.80